sensor_id;sensor_type;location;lat;lon;timestamp;pressure;altitude;pressure_sealevel;temperature;humidity
62152;BME280;48139;47.474;19.034;2022-07-05T03:52:55;100205.44;;;25.77;49.04
62152;BME280;48139;47.474;19.034;2022-07-05T03:55:58;100205.44;;;25.77;49.04
62152;BME280;48139;47.474;19.034;2022-07-05T03:59:01;100207.88;;;25.31;50.03
62152;BME280;48139;47.474;19.034;2022-07-05T04:02:06;100219.13;;;25.35;49.97
62152;BME280;48139;47.474;19.034;2022-07-05T04:05:09;100217.44;;;25.42;49.42
62152;BME280;48139;47.474;19.034;2022-07-05T04:08:12;100216.41;;;25.43;49.54
62152;BME280;48139;47.474;19.034;2022-07-05T04:11:15;100206.66;;;25.50;49.49
62152;BME280;48139;47.474;19.034;2022-07-05T04:14:20;100205.50;;;25.45;49.83
62152;BME280;48139;47.474;19.034;2022-07-05T04:17:23;100204.66;;;25.44;50.31
62152;BME280;48139;47.474;19.034;2022-07-05T04:20:25;100204.34;;;25.47;50.48
62152;BME280;48139;47.474;19.034;2022-07-05T04:23:28;100205.69;;;25.43;50.75
62152;BME280;48139;47.474;19.034;2022-07-05T04:26:30;100206.19;;;25.39;51.12
62152;BME280;48139;47.474;19.034;2022-07-05T04:29:33;100203.03;;;25.27;51.71
62152;BME280;48139;47.474;19.034;2022-07-05T04:32:36;100202.03;;;25.28;51.92
62152;BME280;48139;47.474;19.034;2022-07-05T04:35:40;100204.56;;;25.29;52.14
62152;BME280;48139;47.474;19.034;2022-07-05T04:38:43;100203.03;;;25.35;52.33
62152;BME280;48139;47.474;19.034;2022-07-05T04:41:45;100204.03;;;25.34;52.30
62152;BME280;48139;47.474;19.034;2022-07-05T04:44:48;100210.19;;;25.43;52.27
62152;BME280;48139;47.474;19.034;2022-07-05T04:47:51;100202.50;;;25.40;52.13
62152;BME280;48139;47.474;19.034;2022-07-05T04:50:54;100208.56;;;25.42;51.86
62152;BME280;48139;47.474;19.034;2022-07-05T04:53:58;100202.34;;;25.33;51.73
62152;BME280;48139;47.474;19.034;2022-07-05T04:57:00;100199.00;;;25.39;51.83
62152;BME280;48139;47.474;19.034;2022-07-05T05:00:04;100204.88;;;25.35;52.01
62152;BME280;48139;47.474;19.034;2022-07-05T05:03:06;100192.31;;;25.35;50.60
62152;BME280;48139;47.474;19.034;2022-07-05T05:06:09;100195.78;;;25.44;50.91
62152;BME280;48139;47.474;19.034;2022-07-05T05:09:12;100197.97;;;25.48;50.02
62152;BME280;48139;47.474;19.034;2022-07-05T05:12:14;100190.25;;;25.53;49.79
62152;BME280;48139;47.474;19.034;2022-07-05T05:15:17;100189.41;;;25.53;49.63
62152;BME280;48139;47.474;19.034;2022-07-05T05:18:19;100195.94;;;25.50;49.70
62152;BME280;48139;47.474;19.034;2022-07-05T05:21:26;100190.94;;;25.47;50.07
62152;BME280;48139;47.474;19.034;2022-07-05T05:24:29;100187.25;;;25.40;50.83
62152;BME280;48139;47.474;19.034;2022-07-05T05:27:31;100190.41;;;25.44;51.01
62152;BME280;48139;47.474;19.034;2022-07-05T05:30:34;100191.62;;;25.41;51.19
62152;BME280;48139;47.474;19.034;2022-07-05T05:33:36;100185.38;;;25.49;51.43
62152;BME280;48139;47.474;19.034;2022-07-05T05:36:39;100186.91;;;25.59;51.07
62152;BME280;48139;47.474;19.034;2022-07-05T05:39:42;100200.47;;;25.66;50.83
62152;BME280;48139;47.474;19.034;2022-07-05T05:42:53;100200.56;;;25.81;50.13
62152;BME280;48139;47.474;19.034;2022-07-05T05:45:56;100204.06;;;25.81;49.94
62152;BME280;48139;47.474;19.034;2022-07-05T05:48:59;100212.28;;;25.88;49.78
62152;BME280;48139;47.474;19.034;2022-07-05T05:52:01;100218.47;;;25.96;49.31
62152;BME280;48139;47.474;19.034;2022-07-05T05:55:05;100217.59;;;26.04;48.76
62152;BME280;48139;47.474;19.034;2022-07-05T05:58:21;100214.06;;;26.03;48.53
62152;BME280;48139;47.474;19.034;2022-07-05T06:01:26;100214.25;;;25.94;48.51
62152;BME280;48139;47.474;19.034;2022-07-05T06:04:28;100214.66;;;25.83;48.83
62152;BME280;48139;47.474;19.034;2022-07-05T06:07:31;100222.31;;;25.94;48.65
62152;BME280;48139;47.474;19.034;2022-07-05T06:10:35;100233.44;;;25.83;48.14
62152;BME280;48139;47.474;19.034;2022-07-05T06:13:38;100228.28;;;25.73;48.05
62152;BME280;48139;47.474;19.034;2022-07-05T06:16:40;100234.81;;;25.70;48.37
62152;BME280;48139;47.474;19.034;2022-07-05T06:19:43;100238.19;;;25.64;48.73
62152;BME280;48139;47.474;19.034;2022-07-05T06:22:46;100235.50;;;25.64;49.19
62152;BME280;48139;47.474;19.034;2022-07-05T06:25:49;100230.13;;;25.64;49.11
62152;BME280;48139;47.474;19.034;2022-07-05T06:28:52;100221.28;;;25.48;49.75
62152;BME280;48139;47.474;19.034;2022-07-05T06:31:54;100220.94;;;25.43;49.93
62152;BME280;48139;47.474;19.034;2022-07-05T06:34:57;100218.59;;;25.31;49.93
62152;BME280;48139;47.474;19.034;2022-07-05T06:38:05;100217.09;;;25.37;49.91
62152;BME280;48139;47.474;19.034;2022-07-05T06:41:07;100215.75;;;25.33;50.02
62152;BME280;48139;47.474;19.034;2022-07-05T06:44:10;100217.44;;;25.42;49.76
62152;BME280;48139;47.474;19.034;2022-07-05T06:47:33;100211.75;;;25.29;50.08
62152;BME280;48139;47.474;19.034;2022-07-05T06:50:37;100223.31;;;25.29;50.12
62152;BME280;48139;47.474;19.034;2022-07-05T06:53:40;100217.06;;;25.45;49.67
62152;BME280;48139;47.474;19.034;2022-07-05T06:56:42;100222.09;;;25.64;49.02
62152;BME280;48139;47.474;19.034;2022-07-05T07:00:07;100220.31;;;25.88;48.82
62152;BME280;48139;47.474;19.034;2022-07-05T07:03:29;100220.69;;;25.85;48.38
62152;BME280;48139;47.474;19.034;2022-07-05T07:06:52;100213.25;;;25.95;48.51
62152;BME280;48139;47.474;19.034;2022-07-05T07:09:59;100215.88;;;26.11;48.19
62152;BME280;48139;47.474;19.034;2022-07-05T07:13:02;100218.72;;;25.70;48.32
62152;BME280;48139;47.474;19.034;2022-07-05T07:16:04;100215.66;;;25.74;48.48
62152;BME280;48139;47.474;19.034;2022-07-05T07:19:07;100209.59;;;25.88;48.11
62152;BME280;48139;47.474;19.034;2022-07-05T07:22:14;100214.22;;;26.02;47.58
62152;BME280;48139;47.474;19.034;2022-07-05T07:25:17;100210.03;;;26.38;47.11
62152;BME280;48139;47.474;19.034;2022-07-05T07:28:22;100203.81;;;26.38;46.97
62152;BME280;48139;47.474;19.034;2022-07-05T07:31:26;100202.13;;;26.37;47.43
62152;BME280;48139;47.474;19.034;2022-07-05T07:34:29;100211.97;;;26.53;47.04
62152;BME280;48139;47.474;19.034;2022-07-05T07:37:32;100218.34;;;26.52;46.86
62152;BME280;48139;47.474;19.034;2022-07-05T07:40:35;100215.91;;;26.42;46.94
62152;BME280;48139;47.474;19.034;2022-07-05T07:43:37;100219.81;;;26.31;47.84
62152;BME280;48139;47.474;19.034;2022-07-05T07:46:40;100204.06;;;25.81;48.83
62152;BME280;48139;47.474;19.034;2022-07-05T07:49:43;100202.25;;;25.74;49.06
62152;BME280;48139;47.474;19.034;2022-07-05T07:52:48;100197.41;;;25.69;49.17
62152;BME280;48139;47.474;19.034;2022-07-05T07:55:51;100196.13;;;25.96;48.71
62152;BME280;48139;47.474;19.034;2022-07-05T07:58:53;100203.25;;;26.11;48.50
62152;BME280;48139;47.474;19.034;2022-07-05T08:01:56;100200.97;;;26.00;48.88
62152;BME280;48139;47.474;19.034;2022-07-05T08:04:59;100200.28;;;26.06;48.88
62152;BME280;48139;47.474;19.034;2022-07-05T08:08:01;100203.22;;;25.89;49.40
62152;BME280;48139;47.474;19.034;2022-07-05T08:11:04;100204.03;;;25.97;49.40
62152;BME280;48139;47.474;19.034;2022-07-05T08:14:07;100207.03;;;25.94;49.13
62152;BME280;48139;47.474;19.034;2022-07-05T08:17:09;100209.19;;;25.99;49.57
62152;BME280;48139;47.474;19.034;2022-07-05T08:20:12;100214.41;;;26.00;49.82
62152;BME280;48139;47.474;19.034;2022-07-05T08:23:33;100215.31;;;26.24;49.37
62152;BME280;48139;47.474;19.034;2022-07-05T08:26:37;100207.63;;;26.43;48.63
62152;BME280;48139;47.474;19.034;2022-07-05T08:29:41;100211.41;;;26.57;48.21
62152;BME280;48139;47.474;19.034;2022-07-05T08:32:44;100223.47;;;26.84;48.16
62152;BME280;48139;47.474;19.034;2022-07-05T08:35:47;100215.19;;;26.71;48.17
62152;BME280;48139;47.474;19.034;2022-07-05T08:38:49;100226.53;;;26.58;48.68
62152;BME280;48139;47.474;19.034;2022-07-05T08:41:53;100236.56;;;26.64;48.60
62152;BME280;48139;47.474;19.034;2022-07-05T08:44:58;100228.62;;;26.94;47.94
62152;BME280;48139;47.474;19.034;2022-07-05T08:48:02;100237.09;;;26.82;47.89
62152;BME280;48139;47.474;19.034;2022-07-05T08:51:05;100231.19;;;26.64;48.47
62152;BME280;48139;47.474;19.034;2022-07-05T08:54:11;100239.00;;;26.51;48.50
62152;BME280;48139;47.474;19.034;2022-07-05T08:57:14;100229.97;;;26.44;48.34
62152;BME280;48139;47.474;19.034;2022-07-05T09:00:17;100233.66;;;26.43;48.73
62152;BME280;48139;47.474;19.034;2022-07-05T09:03:24;100231.81;;;26.43;47.99
62152;BME280;48139;47.474;19.034;2022-07-05T09:06:28;100230.59;;;26.54;48.18
62152;BME280;48139;47.474;19.034;2022-07-05T09:09:33;100233.16;;;26.47;48.03
62152;BME280;48139;47.474;19.034;2022-07-05T09:12:37;100227.78;;;26.70;47.41
62152;BME280;48139;47.474;19.034;2022-07-05T09:15:40;100227.72;;;26.78;47.53
62152;BME280;48139;47.474;19.034;2022-07-05T09:18:45;100238.94;;;27.27;46.58
62152;BME280;48139;47.474;19.034;2022-07-05T09:22:00;100238.41;;;27.47;46.65
62152;BME280;48139;47.474;19.034;2022-07-05T09:25:13;100244.56;;;27.55;46.41
62152;BME280;48139;47.474;19.034;2022-07-05T09:28:18;100234.28;;;27.36;46.88
62152;BME280;48139;47.474;19.034;2022-07-05T09:31:48;100237.66;;;26.78;48.42
62152;BME280;48139;47.474;19.034;2022-07-05T09:34:51;100221.19;;;26.50;49.98
62152;BME280;48139;47.474;19.034;2022-07-05T09:37:53;100233.78;;;26.27;50.55
62152;BME280;48139;47.474;19.034;2022-07-05T09:40:58;100255.75;;;25.83;51.07
62152;BME280;48139;47.474;19.034;2022-07-05T09:44:08;100241.22;;;25.45;52.64
62152;BME280;48139;47.474;19.034;2022-07-05T09:47:18;100248.94;;;25.32;52.35
62152;BME280;48139;47.474;19.034;2022-07-05T09:50:33;100237.37;;;25.31;53.70
62152;BME280;48139;47.474;19.034;2022-07-05T09:53:56;100237.03;;;24.70;55.90
62152;BME280;48139;47.474;19.034;2022-07-05T09:57:03;100237.75;;;25.04;55.64
62152;BME280;48139;47.474;19.034;2022-07-05T10:03:10;100290.22;;;24.40;57.90
62152;BME280;48139;47.474;19.034;2022-07-05T10:06:13;100299.50;;;24.20;58.00
62152;BME280;48139;47.474;19.034;2022-07-05T10:09:17;100303.12;;;24.11;59.64
62152;BME280;48139;47.474;19.034;2022-07-05T10:12:20;100306.59;;;24.11;59.41
62152;BME280;48139;47.474;19.034;2022-07-05T10:15:30;100298.09;;;23.82;60.98
62152;BME280;48139;47.474;19.034;2022-07-05T10:18:33;100289.41;;;23.37;64.13
62152;BME280;48139;47.474;19.034;2022-07-05T10:21:36;100272.44;;;22.84;71.41
62152;BME280;48139;47.474;19.034;2022-07-05T10:25:00;100255.09;;;22.26;75.86
62152;BME280;48139;47.474;19.034;2022-07-05T10:28:04;100270.66;;;21.56;81.78
62152;BME280;48139;47.474;19.034;2022-07-05T10:31:15;100290.06;;;21.49;82.32
62152;BME280;48139;47.474;19.034;2022-07-05T10:34:23;100302.38;;;21.50;82.86
62152;BME280;48139;47.474;19.034;2022-07-05T10:37:46;100286.28;;;21.32;83.81
62152;BME280;48139;47.474;19.034;2022-07-05T10:40:53;100304.81;;;21.24;84.06
62152;BME280;48139;47.474;19.034;2022-07-05T10:43:57;100297.09;;;21.21;84.28
62152;BME280;48139;47.474;19.034;2022-07-05T10:47:10;100302.56;;;21.10;83.08
62152;BME280;48139;47.474;19.034;2022-07-05T10:50:13;100317.41;;;21.12;81.87
62152;BME280;48139;47.474;19.034;2022-07-05T10:53:26;100325.09;;;21.06;83.66
62152;BME280;48139;47.474;19.034;2022-07-05T10:56:29;100324.97;;;21.07;82.67
62152;BME280;48139;47.474;19.034;2022-07-05T11:00:08;100329.63;;;21.34;79.72
62152;BME280;48139;47.474;19.034;2022-07-05T11:03:33;100331.16;;;21.08;83.43
62152;BME280;48139;47.474;19.034;2022-07-05T11:09:58;100339.41;;;20.85;84.12
62152;BME280;48139;47.474;19.034;2022-07-05T11:13:40;100343.19;;;20.83;83.03
62152;BME280;48139;47.474;19.034;2022-07-05T11:16:46;100350.88;;;20.67;83.26
62152;BME280;48139;47.474;19.034;2022-07-05T11:20:09;100359.44;;;20.99;82.30
62152;BME280;48139;47.474;19.034;2022-07-05T11:23:12;100363.25;;;20.97;82.26
62152;BME280;48139;47.474;19.034;2022-07-05T11:26:17;100361.84;;;21.02;82.74
62152;BME280;48139;47.474;19.034;2022-07-05T11:32:47;100349.97;;;21.25;79.78
62152;BME280;48139;47.474;19.034;2022-07-05T11:35:50;100348.38;;;20.94;81.15
62152;BME280;48139;47.474;19.034;2022-07-05T11:39:14;100343.19;;;21.02;83.39
62152;BME280;48139;47.474;19.034;2022-07-05T11:42:19;100327.63;;;20.88;82.09
62152;BME280;48139;47.474;19.034;2022-07-05T11:45:23;100318.94;;;20.96;87.53
62152;BME280;48139;47.474;19.034;2022-07-05T11:48:27;100329.53;;;20.47;84.56
62152;BME280;48139;47.474;19.034;2022-07-05T11:51:30;100334.12;;;20.55;86.44
62152;BME280;48139;47.474;19.034;2022-07-05T11:54:33;100326.31;;;20.53;87.46
62152;BME280;48139;47.474;19.034;2022-07-05T11:57:37;100329.75;;;20.35;88.43
62152;BME280;48139;47.474;19.034;2022-07-05T12:00:40;100320.53;;;20.39;88.65
62152;BME280;48139;47.474;19.034;2022-07-05T12:03:53;100324.87;;;20.40;89.86
62152;BME280;48139;47.474;19.034;2022-07-05T12:06:56;100314.97;;;20.51;89.14
62152;BME280;48139;47.474;19.034;2022-07-05T12:10:01;100317.78;;;20.60;88.35
62152;BME280;48139;47.474;19.034;2022-07-05T12:13:46;100323.53;;;20.65;90.29
62152;BME280;48139;47.474;19.034;2022-07-05T12:17:12;100323.53;;;20.74;90.48
62152;BME280;48139;47.474;19.034;2022-07-05T12:20:22;100325.53;;;20.91;88.61
62152;BME280;48139;47.474;19.034;2022-07-05T12:23:28;100298.37;;;21.17;87.28
62152;BME280;48139;47.474;19.034;2022-07-05T12:26:30;100283.47;;;21.24;85.85
62152;BME280;48139;47.474;19.034;2022-07-05T12:29:33;100289.53;;;21.26;83.86
62152;BME280;48139;47.474;19.034;2022-07-05T12:33:05;100295.41;;;21.20;85.56
62152;BME280;48139;47.474;19.034;2022-07-05T12:36:21;100297.78;;;21.04;84.21
62152;BME280;48139;47.474;19.034;2022-07-05T12:39:28;100307.16;;;20.88;85.52
62152;BME280;48139;47.474;19.034;2022-07-05T12:42:35;100308.31;;;20.86;87.40
62152;BME280;48139;47.474;19.034;2022-07-05T12:46:02;100307.16;;;20.79;85.17
62152;BME280;48139;47.474;19.034;2022-07-05T12:49:05;100299.47;;;20.85;85.79
62152;BME280;48139;47.474;19.034;2022-07-05T12:52:08;100303.66;;;20.88;83.75
62152;BME280;48139;47.474;19.034;2022-07-05T12:55:11;100297.34;;;20.89;85.78
62152;BME280;48139;47.474;19.034;2022-07-05T12:58:44;100291.75;;;20.82;84.55
62152;BME280;48139;47.474;19.034;2022-07-05T13:01:47;100286.44;;;20.73;85.48
62152;BME280;48139;47.474;19.034;2022-07-05T13:04:52;100275.63;;;20.65;84.97
62152;BME280;48139;47.474;19.034;2022-07-05T13:07:55;100278.69;;;20.70;87.36
62152;BME280;48139;47.474;19.034;2022-07-05T13:10:58;100275.06;;;20.90;84.43
62152;BME280;48139;47.474;19.034;2022-07-05T13:14:01;100268.34;;;20.86;83.23
62152;BME280;48139;47.474;19.034;2022-07-05T13:17:03;100265.25;;;20.71;84.46
62152;BME280;48139;47.474;19.034;2022-07-05T13:20:07;100257.44;;;20.79;84.63
62152;BME280;48139;47.474;19.034;2022-07-05T13:23:09;100253.78;;;20.90;85.52
62152;BME280;48139;47.474;19.034;2022-07-05T13:26:12;100245.38;;;21.04;84.41
62152;BME280;48139;47.474;19.034;2022-07-05T13:29:14;100242.84;;;21.03;83.43
62152;BME280;48139;47.474;19.034;2022-07-05T13:32:24;100239.72;;;21.07;83.17
62152;BME280;48139;47.474;19.034;2022-07-05T13:35:46;100245.62;;;21.11;81.35
62152;BME280;48139;47.474;19.034;2022-07-05T13:38:49;100247.31;;;21.02;83.23
62152;BME280;48139;47.474;19.034;2022-07-05T13:41:53;100248.31;;;21.11;83.11
62152;BME280;48139;47.474;19.034;2022-07-05T13:45:06;100246.63;;;21.29;83.11
62152;BME280;48139;47.474;19.034;2022-07-05T13:48:10;100244.34;;;21.34;81.25
62152;BME280;48139;47.474;19.034;2022-07-05T13:51:13;100240.22;;;21.59;81.14
62152;BME280;48139;47.474;19.034;2022-07-05T13:54:16;100245.94;;;21.64;80.64
62152;BME280;48139;47.474;19.034;2022-07-05T13:57:18;100246.47;;;21.77;78.36
62152;BME280;48139;47.474;19.034;2022-07-05T14:00:21;100237.19;;;21.81;78.19
62152;BME280;48139;47.474;19.034;2022-07-05T14:03:23;100234.75;;;21.88;78.88
62152;BME280;48139;47.474;19.034;2022-07-05T14:06:26;100230.31;;;21.79;77.30
62152;BME280;48139;47.474;19.034;2022-07-05T14:09:29;100228.16;;;21.92;78.10
62152;BME280;48139;47.474;19.034;2022-07-05T14:12:31;100227.16;;;22.02;76.94
62152;BME280;48139;47.474;19.034;2022-07-05T14:15:34;100221.75;;;22.12;76.47
62152;BME280;48139;47.474;19.034;2022-07-05T14:18:37;100218.69;;;22.52;78.62
62152;BME280;48139;47.474;19.034;2022-07-05T14:21:39;100213.81;;;23.01;78.09
62152;BME280;48139;47.474;19.034;2022-07-05T14:24:47;100207.13;;;23.22;72.79
62152;BME280;48139;47.474;19.034;2022-07-05T14:27:50;100208.53;;;23.35;73.66
62152;BME280;48139;47.474;19.034;2022-07-05T14:30:52;100198.56;;;23.45;72.83
62152;BME280;48139;47.474;19.034;2022-07-05T14:33:55;100198.09;;;23.49;71.97
62152;BME280;48139;47.474;19.034;2022-07-05T14:36:57;100193.44;;;23.51;70.20
62152;BME280;48139;47.474;19.034;2022-07-05T14:40:02;100187.88;;;23.19;71.75
62152;BME280;48139;47.474;19.034;2022-07-05T14:43:07;100188.50;;;23.13;71.90
62152;BME280;48139;47.474;19.034;2022-07-05T14:46:09;100180.28;;;23.06;72.10
62152;BME280;48139;47.474;19.034;2022-07-05T14:49:14;100184.78;;;22.80;73.26
62152;BME280;48139;47.474;19.034;2022-07-05T14:52:17;100173.75;;;22.83;74.97
62152;BME280;48139;47.474;19.034;2022-07-05T14:55:19;100175.91;;;22.79;74.28
62152;BME280;48139;47.474;19.034;2022-07-05T14:58:22;100183.59;;;22.82;72.65
62152;BME280;48139;47.474;19.034;2022-07-05T15:01:24;100175.34;;;22.93;71.27
62152;BME280;48139;47.474;19.034;2022-07-05T15:04:27;100180.97;;;23.08;71.73
62152;BME280;48139;47.474;19.034;2022-07-05T15:07:29;100184.41;;;23.01;71.89
62152;BME280;48139;47.474;19.034;2022-07-05T15:10:32;100175.09;;;23.05;71.39
62152;BME280;48139;47.474;19.034;2022-07-05T15:13:35;100178.69;;;22.96;71.49
62152;BME280;48139;47.474;19.034;2022-07-05T15:16:37;100189.50;;;22.86;72.27
62152;BME280;48139;47.474;19.034;2022-07-05T15:19:40;100174.56;;;23.01;72.24
62152;BME280;48139;47.474;19.034;2022-07-05T15:22:43;100176.53;;;22.99;72.56
62152;BME280;48139;47.474;19.034;2022-07-05T15:25:46;100182.38;;;23.20;72.81
62152;BME280;48139;47.474;19.034;2022-07-05T15:28:48;100176.47;;;23.35;70.70
62152;BME280;48139;47.474;19.034;2022-07-05T15:31:54;100175.94;;;23.57;70.55
62152;BME280;48139;47.474;19.034;2022-07-05T15:34:57;100176.75;;;23.31;69.63
